createdAt,value
2019-06-20T00:00:52.917Z,2.50
2019-06-20T00:03:43.924Z,2.30
2019-06-20T00:06:34.639Z,2.50
2019-06-20T00:09:26.153Z,2.67
2019-06-20T00:12:17.687Z,2.17
2019-06-20T00:15:07.978Z,2.10
2019-06-20T00:17:59.300Z,1.80
2019-06-20T00:20:50.051Z,1.70
2019-06-20T00:23:40.671Z,2.27
2019-06-20T00:26:31.906Z,1.40
2019-06-20T00:29:22.964Z,1.83
2019-06-20T00:32:14.245Z,1.70
2019-06-20T00:35:05.231Z,1.63
2019-06-20T00:37:55.994Z,2.13
2019-06-20T00:40:47.115Z,2.00
2019-06-20T00:43:37.731Z,1.30
2019-06-20T00:46:28.082Z,1.73
2019-06-20T00:49:19.232Z,1.50
2019-06-20T00:52:10.452Z,1.40
2019-06-20T00:55:01.183Z,1.40
2019-06-20T00:57:52.036Z,1.70
2019-06-20T01:00:43.164Z,1.30
2019-06-20T01:03:34.300Z,1.50
2019-06-20T01:06:24.846Z,1.60
2019-06-20T01:09:16.166Z,1.87
2019-06-20T01:12:06.742Z,1.47
2019-06-20T01:14:57.564Z,1.67
2019-06-20T01:17:48.763Z,1.47
2019-06-20T01:20:39.095Z,1.40
2019-06-20T01:23:29.425Z,1.60
2019-06-20T01:26:19.708Z,1.43
2019-06-20T01:29:10.310Z,1.50
2019-06-20T01:32:01.564Z,1.30
2019-06-20T01:34:52.508Z,1.50
2019-06-20T01:37:43.860Z,1.63
2019-06-20T01:40:34.396Z,1.40
2019-06-20T01:43:25.356Z,1.60
2019-06-20T01:46:15.851Z,1.63
2019-06-20T01:49:06.735Z,1.50
2019-06-20T01:51:57.631Z,1.70
2019-06-20T01:54:47.809Z,1.70
2019-06-20T01:57:39.075Z,1.70
2019-06-20T02:00:45.679Z,1.50
2019-06-20T02:03:36.945Z,1.40
2019-06-20T02:06:28.195Z,1.43
2019-06-20T02:09:18.295Z,1.70
2019-06-20T02:12:08.715Z,1.60
2019-06-20T02:14:59.219Z,1.90
2019-06-20T02:17:50.493Z,1.83
2019-06-20T02:20:46.951Z,1.47
2019-06-20T02:23:37.497Z,1.70
2019-06-20T02:26:28.557Z,1.30
2019-06-20T02:29:19.548Z,1.70
2019-06-20T02:32:10.519Z,1.63
2019-06-20T02:35:02.550Z,1.90
2019-06-20T02:37:53.558Z,1.70
2019-06-20T02:40:44.230Z,1.70
2019-06-20T02:43:34.511Z,1.90
2019-06-20T02:46:24.827Z,2.00
2019-06-20T02:49:15.571Z,2.10
2019-06-20T02:52:05.754Z,1.90
2019-06-20T02:54:56.941Z,1.70
2019-06-20T02:57:48.270Z,2.00
2019-06-20T03:00:58.740Z,1.50
2019-06-20T03:03:48.875Z,1.70
2019-06-20T03:06:39.872Z,1.70
2019-06-20T03:09:31.887Z,1.50
2019-06-20T03:12:23.177Z,1.83
2019-06-20T03:15:15.579Z,2.00
2019-06-20T03:18:06.339Z,1.93
2019-06-20T03:20:56.426Z,2.03
2019-06-20T03:23:47.043Z,1.90
2019-06-20T03:26:38.318Z,1.63
2019-06-20T03:29:29.401Z,1.83
2019-06-20T03:32:19.582Z,2.33
2019-06-20T03:35:10.241Z,1.80
2019-06-20T03:38:00.953Z,2.37
2019-06-20T03:40:51.813Z,1.90
2019-06-20T03:43:42.362Z,2.20
2019-06-20T03:46:33.529Z,2.10
2019-06-20T03:49:24.918Z,2.17
2019-06-20T03:52:15.571Z,2.10
2019-06-20T03:55:06.807Z,1.93
2019-06-20T03:57:58.414Z,1.73
2019-06-20T04:00:49.763Z,1.90
2019-06-20T04:03:40.211Z,1.90
2019-06-20T04:06:30.632Z,1.93
2019-06-20T04:09:20.806Z,1.97
2019-06-20T04:12:11.812Z,2.00
2019-06-20T04:15:18.007Z,2.13
2019-06-20T04:17:54.953Z,1.97
2019-06-20T04:20:45.690Z,1.90
2019-06-20T04:23:36.653Z,1.70
2019-06-20T04:26:27.025Z,2.20
2019-06-20T04:29:18.278Z,2.23
2019-06-20T04:32:09.155Z,2.27
2019-06-20T04:34:59.545Z,2.50
2019-06-20T04:37:50.989Z,2.50
2019-06-20T04:40:42.426Z,2.33
2019-06-20T04:43:33.710Z,2.10
2019-06-20T04:46:32.808Z,2.37
2019-06-20T04:49:24.105Z,2.27
2019-06-20T04:52:15.080Z,2.27
2019-06-20T04:55:05.486Z,2.30
2019-06-20T04:57:57.142Z,2.40
2019-06-20T05:00:48.678Z,2.17
2019-06-20T05:03:39.521Z,2.17
2019-06-20T05:06:30.359Z,2.20
2019-06-20T05:09:21.302Z,2.13
2019-06-20T05:12:12.470Z,2.17
2019-06-20T05:15:02.773Z,2.50
2019-06-20T05:17:53.488Z,2.20
2019-06-20T05:20:44.361Z,2.40
2019-06-20T05:23:34.507Z,2.60
2019-06-20T05:26:25.471Z,2.17
2019-06-20T05:29:15.713Z,2.33
2019-06-20T05:32:05.883Z,2.53
2019-06-20T05:34:57.170Z,2.80
2019-06-20T05:37:47.606Z,2.20
2019-06-20T05:40:38.258Z,3.00
2019-06-20T05:43:29.647Z,2.50
2019-06-20T05:46:20.694Z,2.67
2019-06-20T05:49:11.324Z,3.13
2019-06-20T05:52:01.983Z,2.90
2019-06-20T05:54:52.267Z,2.60
2019-06-20T05:57:43.230Z,2.77
2019-06-20T06:00:34.511Z,2.50
2019-06-20T06:03:25.915Z,2.33
2019-06-20T06:06:17.204Z,2.73
2019-06-20T06:09:08.509Z,2.70
2019-06-20T06:11:59.303Z,2.70
2019-06-20T06:14:50.051Z,2.60
2019-06-20T06:17:40.163Z,2.73
2019-06-20T06:20:30.543Z,2.63
2019-06-20T06:23:21.408Z,2.33
2019-06-20T06:26:12.579Z,2.73
2019-06-20T06:29:03.386Z,2.83
2019-06-20T06:31:53.978Z,2.70
2019-06-20T06:34:44.645Z,2.60
2019-06-20T06:37:35.879Z,2.60
2019-06-20T06:40:27.795Z,3.00
2019-06-20T06:43:18.411Z,3.00
2019-06-20T06:46:09.090Z,2.87
2019-06-20T06:48:59.775Z,3.03
2019-06-20T06:51:50.726Z,2.63
2019-06-20T06:54:40.914Z,2.50
2019-06-20T06:57:31.276Z,3.10
2019-06-20T07:00:22.241Z,2.70
2019-06-20T07:03:13.600Z,2.60
2019-06-20T07:06:04.729Z,2.77
2019-06-20T07:08:55.082Z,2.83
2019-06-20T07:11:46.037Z,2.90
2019-06-20T07:14:36.908Z,3.23
2019-06-20T07:17:27.042Z,3.60
2019-06-20T07:20:17.224Z,3.23
2019-06-20T07:23:07.556Z,3.10
2019-06-20T07:25:57.973Z,2.93
2019-06-20T07:28:51.437Z,3.13
2019-06-20T07:31:40.255Z,3.30
2019-06-20T07:34:31.659Z,3.30
2019-06-20T07:37:22.659Z,3.40
2019-06-20T07:40:13.774Z,3.27
2019-06-20T07:43:03.927Z,2.70
2019-06-20T07:46:02.740Z,3.50
2019-06-20T07:48:47.461Z,3.40
2019-06-20T07:51:38.125Z,3.20
2019-06-20T07:54:28.721Z,2.90
2019-06-20T07:57:19.069Z,3.03
2019-06-20T08:00:10.598Z,3.60
2019-06-20T08:03:01.471Z,2.97
2019-06-20T08:05:52.638Z,3.20
2019-06-20T08:08:43.417Z,3.30
2019-06-20T08:11:34.082Z,3.20
2019-06-20T08:14:25.367Z,3.23
2019-06-20T08:17:15.888Z,3.30
2019-06-20T08:20:07.387Z,3.20
2019-06-20T08:22:57.823Z,2.83
2019-06-20T08:25:48.054Z,2.70
2019-06-20T08:28:39.389Z,3.17
2019-06-20T08:31:29.866Z,2.67
2019-06-20T08:34:21.316Z,2.60
2019-06-20T08:37:12.773Z,3.10
2019-06-20T08:40:04.234Z,2.73
2019-06-20T08:42:57.149Z,2.83
2019-06-20T08:45:47.354Z,2.97
2019-06-20T08:48:38.567Z,3.10
2019-06-20T08:51:29.878Z,2.77
2019-06-20T08:54:21.320Z,2.80
2019-06-20T08:57:12.007Z,3.13
2019-06-20T09:02:55.658Z,2.87
2019-06-20T09:05:47.238Z,2.50
2019-06-20T09:08:38.202Z,2.80
2019-06-20T09:11:28.603Z,2.37
2019-06-20T09:14:19.276Z,2.47
2019-06-20T09:17:09.548Z,2.67
2019-06-20T09:20:00.368Z,2.80
2019-06-20T09:22:52.295Z,2.80
2019-06-20T09:25:44.525Z,2.80
2019-06-20T09:28:35.330Z,2.90
2019-06-20T09:31:25.543Z,2.60
2019-06-20T09:34:16.209Z,2.70
2019-06-20T09:37:07.408Z,2.50
2019-06-20T09:39:59.174Z,3.27
2019-06-20T09:42:52.872Z,2.60
2019-06-20T09:45:44.011Z,2.33
2019-06-20T09:48:34.755Z,2.30
2019-06-20T09:51:25.350Z,2.53
2019-06-20T09:54:16.228Z,2.40
2019-06-20T09:57:07.271Z,2.47
2019-06-20T10:00:07.900Z,2.43
2019-06-20T10:02:50.667Z,2.60
2019-06-20T10:05:42.136Z,2.43
2019-06-20T10:08:34.095Z,2.40
2019-06-20T10:11:25.428Z,2.73
2019-06-20T10:14:15.640Z,2.87
2019-06-20T10:17:06.599Z,2.40
2019-06-20T10:19:57.814Z,2.90
2019-06-20T10:22:48.535Z,3.07
2019-06-20T10:25:39.787Z,2.70
2019-06-20T10:28:30.190Z,2.83
2019-06-20T10:31:22.308Z,2.83
2019-06-20T10:34:13.255Z,2.93
2019-06-20T10:37:03.479Z,2.80
2019-06-20T10:39:54.644Z,2.37
2019-06-20T10:42:48.024Z,3.00
2019-06-20T10:45:39.581Z,2.77
2019-06-20T10:48:30.630Z,2.53
2019-06-20T10:51:35.164Z,3.27
2019-06-20T10:54:27.449Z,2.77
2019-06-20T10:57:17.753Z,2.93
2019-06-20T11:00:11.632Z,2.63
2019-06-20T11:03:01.738Z,2.10
2019-06-20T11:05:52.197Z,2.50
2019-06-20T11:08:43.349Z,2.47
2019-06-20T11:11:33.456Z,2.70
2019-06-20T11:14:23.853Z,1.90
2019-06-20T11:17:14.907Z,1.63
2019-06-20T11:20:06.869Z,1.90
2019-06-20T11:22:59.121Z,1.50
2019-06-20T11:25:49.404Z,1.60
2019-06-20T11:28:41.383Z,1.80
2019-06-20T11:31:13.992Z,1.70
2019-06-20T11:33:46.388Z,2.13
2019-06-20T11:36:18.733Z,2.00
2019-06-20T11:38:51.212Z,1.80
2019-06-20T11:41:23.621Z,1.63
2019-06-20T11:43:55.940Z,1.80
2019-06-20T11:46:28.366Z,1.83
2019-06-20T11:49:00.717Z,1.70
2019-06-20T11:51:34.289Z,1.83
2019-06-20T11:54:07.327Z,1.80
2019-06-20T11:56:39.796Z,1.53
2019-06-20T11:59:12.230Z,1.80
2019-06-20T12:01:44.943Z,1.93
2019-06-20T12:04:17.383Z,1.70
2019-06-20T12:06:49.815Z,1.67
2019-06-20T12:09:22.237Z,1.90
2019-06-20T12:11:54.664Z,1.70
2019-06-20T12:14:27.066Z,1.60
2019-06-20T12:16:59.522Z,1.80
2019-06-20T12:19:32.055Z,2.17
2019-06-20T12:22:04.559Z,2.30
2019-06-20T12:24:38.163Z,2.10
2019-06-20T12:27:11.085Z,2.00
2019-06-20T12:29:44.361Z,2.07
2019-06-20T12:32:19.263Z,2.30
2019-06-20T12:34:51.727Z,2.17
2019-06-20T12:37:24.155Z,2.40
2019-06-20T12:39:56.923Z,2.63
2019-06-20T12:42:29.344Z,2.50
2019-06-20T12:45:04.920Z,2.30
2019-06-20T12:47:40.239Z,2.30
2019-06-20T12:50:13.005Z,2.70
2019-06-20T12:52:45.931Z,2.43
2019-06-20T12:55:19.545Z,2.30
2019-06-20T12:57:52.055Z,2.23
2019-06-20T13:00:24.459Z,2.47
2019-06-20T13:02:56.956Z,2.30
2019-06-20T13:05:29.764Z,2.07
2019-06-20T13:08:02.310Z,2.17
2019-06-20T13:10:35.935Z,2.33
2019-06-20T13:13:08.372Z,2.20
2019-06-20T13:15:40.772Z,1.73
2019-06-20T13:18:13.361Z,1.77
2019-06-20T13:20:46.507Z,1.57
2019-06-20T13:23:18.983Z,1.70
2019-06-20T13:25:52.293Z,1.63
2019-06-20T13:28:24.791Z,2.30
2019-06-20T13:30:57.554Z,2.00
2019-06-20T13:33:30.156Z,1.90
2019-06-20T13:36:02.835Z,1.83
2019-06-20T13:38:35.532Z,2.17
2019-06-20T13:41:08.224Z,1.77
2019-06-20T13:43:41.251Z,2.07
2019-06-20T13:46:13.572Z,2.00
2019-06-20T13:48:47.438Z,1.90
2019-06-20T13:51:19.917Z,2.23
2019-06-20T13:53:53.110Z,2.00
2019-06-20T13:56:25.538Z,1.63
2019-06-20T13:58:57.895Z,2.00
2019-06-20T14:01:30.438Z,1.93
2019-06-20T14:04:03.057Z,2.30
2019-06-20T14:06:35.519Z,1.67
2019-06-20T14:09:10.767Z,2.00
2019-06-20T14:11:43.328Z,1.60
2019-06-20T14:14:15.734Z,2.07
2019-06-20T14:16:48.819Z,2.00
2019-06-20T14:19:21.365Z,2.13
2019-06-20T14:21:54.320Z,2.27
2019-06-20T14:24:27.067Z,1.90
2019-06-20T14:26:59.841Z,2.10
2019-06-20T14:29:32.484Z,1.93
2019-06-20T14:32:04.882Z,2.17
2019-06-20T14:34:37.547Z,2.20
2019-06-20T14:37:10.097Z,2.00
2019-06-20T14:39:44.860Z,2.13
2019-06-20T14:42:16.621Z,1.87
2019-06-20T14:44:49.851Z,1.97
2019-06-20T14:47:22.306Z,2.43
2019-06-20T14:49:54.782Z,2.30
2019-06-20T14:52:27.272Z,2.70
2019-06-20T14:55:00.731Z,2.10
2019-06-20T14:57:34.304Z,2.37
2019-06-20T15:00:07.077Z,2.50
2019-06-20T15:02:39.748Z,2.20
2019-06-20T15:05:15.766Z,2.60
2019-06-20T15:07:49.588Z,2.90
2019-06-20T15:10:23.436Z,2.30
2019-06-20T15:12:56.205Z,2.70
2019-06-20T15:15:31.454Z,2.37
2019-06-20T15:18:02.892Z,2.37
2019-06-20T15:20:35.261Z,2.50
2019-06-20T15:23:07.752Z,2.20
2019-06-20T15:25:40.162Z,2.30
2019-06-20T15:28:12.646Z,2.10
2019-06-20T15:30:47.083Z,2.20
2019-06-20T15:33:19.162Z,2.20
2019-06-20T15:35:53.476Z,1.90
2019-06-20T15:38:25.656Z,2.03
2019-06-20T15:40:58.084Z,2.40
2019-06-20T15:43:30.416Z,2.33
2019-06-20T15:46:02.767Z,2.10
2019-06-20T15:48:35.155Z,2.03
2019-06-20T15:51:07.583Z,2.20
2019-06-20T15:53:39.978Z,2.13
2019-06-20T15:56:12.459Z,1.80
2019-06-20T15:58:44.829Z,1.93
2019-06-20T16:01:17.243Z,2.10
2019-06-20T16:03:49.724Z,1.93
2019-06-20T16:06:22.135Z,2.00
2019-06-20T16:08:54.530Z,1.80
2019-06-20T16:11:26.965Z,1.97
2019-06-20T16:13:59.360Z,2.10
2019-06-20T16:16:31.802Z,2.20
2019-06-20T16:19:04.191Z,1.80
2019-06-20T16:21:36.612Z,1.83
2019-06-20T16:24:12.460Z,1.90
2019-06-20T16:26:43.164Z,2.20
2019-06-20T16:29:15.633Z,2.07
2019-06-20T16:31:50.304Z,2.40
2019-06-20T16:34:22.712Z,2.17
2019-06-20T16:37:09.169Z,2.80
2019-06-20T16:39:29.327Z,2.70
2019-06-20T16:42:01.753Z,2.20
2019-06-20T16:44:34.247Z,2.60
2019-06-20T16:47:06.666Z,2.60
2019-06-20T16:49:39.175Z,2.57
2019-06-20T16:52:11.918Z,2.50
2019-06-20T16:54:46.541Z,2.60
2019-06-20T16:57:22.436Z,2.50
2019-06-20T16:59:56.390Z,2.50
2019-06-20T17:02:31.159Z,2.50
2019-06-20T17:05:03.528Z,2.37
2019-06-20T17:07:36.004Z,2.10
2019-06-20T17:10:09.216Z,2.20
2019-06-20T17:12:41.635Z,2.47
2019-06-20T17:15:14.935Z,2.23
2019-06-20T17:17:47.352Z,2.10
2019-06-20T17:20:21.400Z,2.20
2019-06-20T17:22:53.817Z,2.30
2019-06-20T17:25:26.226Z,2.67
2019-06-20T17:27:58.669Z,2.63
2019-06-20T17:30:31.208Z,2.63
2019-06-20T17:33:03.643Z,1.80
2019-06-20T17:35:35.983Z,2.30
2019-06-20T17:38:08.404Z,2.23
2019-06-20T17:40:40.809Z,2.17
2019-06-20T17:43:13.234Z,2.10
2019-06-20T17:45:45.625Z,2.27
2019-06-20T17:48:20.403Z,2.30
2019-06-20T17:50:52.756Z,2.33
2019-06-20T17:53:25.180Z,2.47
2019-06-20T17:55:58.185Z,2.30
2019-06-20T17:58:30.607Z,2.57
2019-06-20T18:01:03.020Z,2.20
2019-06-20T18:03:35.545Z,2.20
2019-06-20T18:06:07.945Z,2.30
2019-06-20T18:08:40.428Z,2.30
2019-06-20T18:11:13.017Z,2.20
2019-06-20T18:13:45.473Z,2.70
2019-06-20T18:16:25.047Z,2.43
2019-06-20T18:18:52.006Z,2.33
2019-06-20T18:21:24.403Z,1.87
2019-06-20T18:23:56.957Z,2.10
2019-06-20T18:26:30.461Z,1.93
2019-06-20T18:29:02.975Z,2.50
2019-06-20T18:31:35.364Z,1.97
2019-06-20T18:34:07.720Z,1.87
2019-06-20T18:36:43.344Z,1.77
2019-06-20T18:39:14.247Z,1.80
2019-06-20T18:41:47.508Z,1.77
2019-06-20T18:44:21.123Z,2.00
2019-06-20T18:46:53.527Z,2.37
2019-06-20T18:49:26.051Z,2.20
2019-06-20T18:51:58.428Z,1.90
2019-06-20T18:54:30.860Z,2.30
2019-06-20T18:57:03.256Z,1.50
2019-06-20T18:59:36.686Z,2.10
2019-06-20T19:02:09.229Z,1.93
2019-06-20T19:04:47.962Z,1.63
2019-06-20T19:07:15.745Z,1.90
2019-06-20T19:09:48.206Z,2.00
2019-06-20T19:12:20.526Z,1.73
2019-06-20T19:14:52.941Z,1.80
2019-06-20T19:17:25.362Z,1.70
2019-06-20T19:19:57.754Z,2.30
2019-06-20T19:22:30.246Z,2.13
2019-06-20T19:25:04.012Z,1.80
2019-06-20T19:27:46.192Z,2.10
2019-06-20T19:30:10.878Z,2.27
2019-06-20T19:32:43.308Z,2.30
2019-06-20T19:35:15.782Z,2.27
2019-06-20T19:37:48.109Z,2.13
2019-06-20T19:40:20.429Z,2.13
2019-06-20T19:42:52.824Z,2.37
2019-06-20T19:45:25.250Z,2.10
2019-06-20T19:47:57.752Z,2.17
2019-06-20T19:50:30.175Z,2.03
2019-06-20T19:53:02.661Z,2.37
2019-06-20T19:55:35.135Z,2.17
2019-06-20T19:58:07.541Z,2.20
2019-06-20T20:00:40.054Z,2.27
2019-06-20T20:03:12.442Z,2.37
2019-06-20T20:05:45.339Z,2.47
2019-06-20T20:08:17.741Z,2.40
2019-06-20T20:10:50.179Z,2.20
2019-06-20T20:13:22.563Z,2.20
2019-06-20T20:15:55.024Z,2.33
2019-06-20T20:18:27.368Z,2.53
2019-06-20T20:20:59.835Z,2.37
2019-06-20T20:23:32.244Z,2.50
2019-06-20T20:26:08.444Z,2.00
2019-06-20T20:28:38.759Z,2.50
2019-06-20T20:31:11.270Z,2.40
2019-06-20T20:33:43.764Z,2.70
2019-06-20T20:36:24.915Z,1.90
2019-06-20T20:38:50.278Z,1.87
2019-06-20T20:41:22.629Z,2.30
2019-06-20T20:43:55.015Z,2.60
2019-06-20T20:46:27.367Z,1.90
2019-06-20T20:48:59.721Z,2.20
2019-06-20T20:51:32.116Z,1.63
2019-06-20T20:54:04.523Z,1.83
2019-06-20T20:56:36.939Z,1.83
2019-06-20T20:59:09.423Z,1.80
2019-06-20T21:01:41.847Z,1.90
2019-06-20T21:04:14.239Z,1.97
2019-06-20T21:06:46.700Z,2.20
2019-06-20T21:09:19.089Z,1.97
2019-06-20T21:11:51.643Z,2.50
2019-06-20T21:14:24.053Z,2.20
2019-06-20T21:16:56.473Z,2.40
2019-06-20T21:19:28.953Z,2.23
2019-06-20T21:22:01.307Z,2.20
2019-06-20T21:24:33.693Z,1.80
2019-06-20T21:27:06.119Z,2.50
2019-06-20T21:29:38.542Z,1.90
2019-06-20T21:32:10.886Z,2.20
2019-06-20T21:34:43.276Z,1.90
2019-06-20T21:37:15.775Z,2.20
2019-06-20T21:39:48.170Z,1.93
2019-06-20T21:42:20.516Z,2.20
2019-06-20T21:44:52.910Z,2.30
2019-06-20T21:47:25.388Z,2.40
2019-06-20T21:49:57.798Z,2.30
2019-06-20T21:52:30.181Z,2.10
2019-06-20T21:55:02.689Z,1.77
2019-06-20T21:57:35.378Z,2.10
2019-06-20T22:00:10.739Z,1.90
2019-06-20T22:02:44.682Z,2.20
2019-06-20T22:05:17.016Z,2.10
2019-06-20T22:07:49.391Z,1.83
2019-06-20T22:10:21.781Z,2.10
2019-06-20T22:12:54.237Z,2.30
2019-06-20T22:15:26.703Z,2.03
2019-06-20T22:17:59.102Z,2.90
2019-06-20T22:20:31.498Z,2.37
2019-06-20T22:23:03.913Z,2.60
2019-06-20T22:25:36.331Z,2.37
2019-06-20T22:28:08.752Z,2.40
2019-06-20T22:30:51.907Z,2.63
2019-06-20T22:33:24.387Z,2.13
2019-06-20T22:35:56.788Z,2.57
2019-06-20T22:38:29.503Z,2.20
2019-06-20T22:41:01.897Z,2.20
2019-06-20T22:43:34.312Z,2.10
2019-06-20T22:46:06.723Z,2.50
2019-06-20T22:48:39.137Z,2.27
2019-06-20T22:51:13.776Z,2.90
2019-06-20T22:53:45.673Z,2.50
2019-06-20T22:56:18.064Z,2.87
2019-06-20T22:58:51.541Z,2.87
2019-06-20T23:01:23.934Z,2.60
2019-06-20T23:03:56.349Z,2.43
2019-06-20T23:06:28.737Z,2.23
2019-06-20T23:09:01.173Z,1.63
2019-06-20T23:11:35.157Z,1.90
2019-06-20T23:14:07.569Z,2.17
2019-06-20T23:16:40.006Z,2.00
2019-06-20T23:19:12.409Z,1.90
2019-06-20T23:21:44.748Z,2.03
2019-06-20T23:24:17.165Z,1.90
2019-06-20T23:26:49.635Z,2.13
2019-06-20T23:29:24.993Z,2.00
2019-06-20T23:31:57.406Z,1.60
2019-06-20T23:34:29.819Z,1.80
2019-06-20T23:37:12.375Z,1.87
2019-06-20T23:39:36.337Z,1.83
2019-06-20T23:42:08.723Z,2.00
2019-06-20T23:44:41.139Z,2.50
2019-06-20T23:47:13.596Z,1.87
2019-06-20T23:49:46.358Z,2.07
2019-06-20T23:52:21.547Z,2.20
2019-06-20T23:54:54.047Z,1.70
2019-06-20T23:57:26.367Z,2.10
2019-06-20T23:59:58.781Z,2.00
